Time;durP1;ratioP1;P1;durP2;ratioP2;P2;SDS_P1;SDS_P2;PMS_P1;PMS_P2;Temp;Humidity;BMP_temperature;BMP_pressure;BME280_temperature;BME280_humidity;BME280_pressure;Samples;Min_cycle;Max_cycle;Signal;HPM_P1;HPM_P2
2023/09/29 00:00:38;;;;;;;4.90;4.43;;;21.60;98.00;;;;;;4909002;29;20458;-68
2023/09/29 00:03:08;;;;;;;10.00;5.77;;;21.70;98.00;;;;;;4924291;29;20454;-68
2023/09/29 00:05:34;;;;;;;6.47;5.87;;;21.70;98.00;;;;;;4924374;29;20545;-68
2023/09/29 00:08:03;;;;;;;5.40;4.90;;;21.60;98.00;;;;;;4941665;29;20497;-68
2023/09/29 00:10:30;;;;;;;6.07;5.47;;;21.70;98.00;;;;;;4924344;29;20530;-68
2023/09/29 00:12:56;;;;;;;5.60;5.20;;;21.60;98.00;;;;;;4939907;28;20466;-68
2023/09/29 00:15:22;;;;;;;6.10;5.43;;;21.70;98.00;;;;;;4939871;29;20478;-68
2023/09/29 00:17:50;;;;;;;5.53;4.90;;;21.60;97.90;;;;;;4933184;28;20425;-68
2023/09/29 00:20:23;;;;;;;6.60;4.70;;;21.60;98.00;;;;;;4923939;29;21430;-68
2023/09/29 00:22:59;;;;;;;6.07;5.47;;;21.60;98.00;;;;;;4923813;28;20462;-68
2023/09/29 00:25:30;;;;;;;5.60;4.97;;;21.60;98.00;;;;;;4941490;29;20423;-68
2023/09/29 00:27:57;;;;;;;6.83;5.37;;;21.60;98.00;;;;;;4924357;29;20438;-68
2023/09/29 00:30:23;;;;;;;7.43;5.30;;;21.60;98.00;;;;;;4941368;29;20433;-68
2023/09/29 00:32:57;;;;;;;6.27;5.60;;;21.60;98.10;;;;;;4923847;29;21124;-68
2023/09/29 00:37:51;;;;;;;8.43;5.83;;;21.60;98.10;;;;;;4939472;29;21272;-68
2023/09/29 00:40:17;;;;;;;7.40;5.77;;;21.60;98.10;;;;;;4923611;29;20465;-68
2023/09/29 00:42:43;;;;;;;7.13;5.33;;;21.60;98.10;;;;;;4939629;28;21218;-68
2023/09/29 00:45:16;;;;;;;5.67;5.07;;;21.50;98.00;;;;;;4940919;29;20446;-68
2023/09/29 00:47:50;;;;;;;5.83;5.27;;;21.60;98.10;;;;;;4940670;29;20481;-68
2023/09/29 00:50:21;;;;;;;5.43;4.93;;;21.60;98.10;;;;;;4939177;29;20482;-68
2023/09/29 00:52:54;;;;;;;5.03;4.53;;;21.60;98.10;;;;;;4939064;28;21036;-68
2023/09/29 00:55:28;;;;;;;5.50;5.00;;;21.50;98.00;;;;;;4939316;29;20563;-68
2023/09/29 00:57:58;;;;;;;5.30;4.90;;;21.50;98.00;;;;;;4939181;29;21118;-68
2023/09/29 01:00:35;;;;;;;5.77;5.13;;;21.50;98.10;;;;;;4939427;29;20445;-68
2023/09/29 01:03:10;;;;;;;5.20;4.57;;;21.50;98.00;;;;;;4923112;29;20474;-68
2023/09/29 01:05:38;;;;;;;6.50;5.97;;;21.60;98.10;;;;;;4940461;29;20446;-68
2023/09/29 01:08:08;;;;;;;5.60;5.00;;;21.50;98.10;;;;;;4907902;29;20461;-68
2023/09/29 01:10:39;;;;;;;6.30;5.30;;;21.50;98.10;;;;;;4938997;29;20437;-68
2023/09/29 01:13:06;;;;;;;5.10;4.70;;;21.50;98.10;;;;;;4940707;28;21025;-68
2023/09/29 01:15:36;;;;;;;5.70;5.20;;;21.50;98.10;;;;;;4939010;29;20532;-68
2023/09/29 01:18:04;;;;;;;6.00;5.40;;;21.50;98.10;;;;;;4923377;29;20426;-68
2023/09/29 01:20:34;;;;;;;4.90;4.43;;;21.50;98.10;;;;;;4940810;29;20427;-68
2023/09/29 01:23:04;;;;;;;7.20;5.13;;;21.60;98.20;;;;;;4939335;28;20452;-68
2023/09/29 01:25:32;;;;;;;5.53;5.03;;;21.50;98.10;;;;;;4923345;29;20470;-68
2023/09/29 01:28:05;;;;;;;5.50;5.00;;;21.50;98.10;;;;;;4923448;29;20453;-68
2023/09/29 01:30:34;;;;;;;5.57;5.07;;;21.50;98.10;;;;;;4942400;28;20437;-68
2023/09/29 01:33:00;;;;;;;5.87;5.30;;;21.50;98.10;;;;;;4927023;29;21145;-68
2023/09/29 01:35:27;;;;;;;5.20;4.80;;;21.40;98.10;;;;;;4926854;29;20488;-68
2023/09/29 01:37:59;;;;;;;6.40;5.80;;;21.40;98.10;;;;;;4927375;29;20573;-68
2023/09/29 01:40:25;;;;;;;6.00;5.40;;;21.40;98.10;;;;;;4911006;29;20489;-68
2023/09/29 01:42:56;;;;;;;7.37;5.40;;;21.50;98.20;;;;;;4926279;28;20645;-68
2023/09/29 01:45:22;;;;;;;6.17;4.80;;;21.40;98.10;;;;;;4944081;29;21028;-68
2023/09/29 01:47:49;;;;;;;6.63;5.50;;;21.40;98.20;;;;;;4943816;29;20446;-68
2023/09/29 01:50:20;;;;;;;5.50;5.10;;;21.50;98.20;;;;;;4926591;29;20528;-68
2023/09/29 01:52:50;;;;;;;6.83;5.43;;;21.50;98.20;;;;;;5072332;23;21408;-72
2023/09/29 01:55:24;;;;;;;5.70;5.20;;;21.40;98.20;;;;;;4993924;28;21098;-72
2023/09/29 01:57:58;;;;;;;6.17;5.57;;;21.40;98.20;;;;;;4976708;28;20987;-73
2023/09/29 02:00:28;;;;;;;5.10;4.60;;;21.40;98.20;;;;;;4985543;28;20420;-73
2023/09/29 02:02:55;;;;;;;6.17;5.57;;;21.40;98.20;;;;;;4957419;28;20993;-72
2023/09/29 02:05:24;;;;;;;5.77;4.97;;;21.40;98.10;;;;;;4996415;28;20444;-73
2023/09/29 02:07:53;;;;;;;7.70;5.30;;;21.40;98.20;;;;;;4993086;28;20431;-72
2023/09/29 02:10:21;;;;;;;6.07;5.43;;;21.40;98.20;;;;;;4953515;28;20445;-73
2023/09/29 02:12:55;;;;;;;5.50;5.00;;;21.40;98.20;;;;;;4981602;28;20452;-73
2023/09/29 02:15:22;;;;;;;5.47;5.07;;;21.40;98.20;;;;;;4972601;28;20474;-72
2023/09/29 02:17:51;;;;;;;5.90;5.30;;;21.40;98.20;;;;;;4980674;28;20421;-73
2023/09/29 02:20:20;;;;;;;6.73;5.20;;;21.40;98.30;;;;;;4967904;28;20440;-73
2023/09/29 02:22:48;;;;;;;5.30;4.80;;;21.40;98.20;;;;;;4968271;28;21240;-73
2023/09/29 02:25:17;;;;;;;6.10;5.50;;;21.40;98.30;;;;;;4975635;28;20822;-71
2023/09/29 02:27:48;;;;;;;5.87;5.37;;;21.40;98.30;;;;;;4992639;28;20546;-71
2023/09/29 02:30:14;;;;;;;7.50;5.13;;;21.30;98.20;;;;;;4999308;28;20447;-72
2023/09/29 02:32:41;;;;;;;5.70;5.13;;;21.40;98.20;;;;;;5001063;28;21104;-73
2023/09/29 02:35:09;;;;;;;6.00;5.30;;;21.40;98.30;;;;;;5001920;28;20482;-71
2023/09/29 02:37:37;;;;;;;5.50;5.00;;;21.40;98.30;;;;;;5002230;28;20431;-73
2023/09/29 02:40:11;;;;;;;7.47;5.40;;;21.40;98.30;;;;;;4967710;28;20439;-73
2023/09/29 02:42:37;;;;;;;5.43;4.93;;;21.40;98.30;;;;;;4977276;28;20462;-72
2023/09/29 02:45:07;;;;;;;5.90;5.30;;;21.50;98.30;;;;;;4987657;28;20450;-73
2023/09/29 02:47:35;;;;;;;5.23;4.73;;;21.40;98.30;;;;;;4978035;28;20462;-73
2023/09/29 02:50:04;;;;;;;6.10;5.30;;;21.40;98.30;;;;;;4968375;28;20506;-72
2023/09/29 02:52:32;;;;;;;6.07;5.47;;;21.40;98.40;;;;;;4968028;28;20476;-72
2023/09/29 02:54:59;;;;;;;7.00;5.87;;;21.30;98.20;;;;;;4967323;28;21085;-73
2023/09/29 02:57:28;;;;;;;5.20;4.80;;;21.40;98.30;;;;;;4935781;28;20528;-73
2023/09/29 02:59:59;;;;;;;5.80;5.30;;;21.30;98.30;;;;;;4976198;28;20430;-72
2023/09/29 03:02:28;;;;;;;6.53;5.00;;;21.30;98.30;;;;;;4983501;28;21280;-73
2023/09/29 03:04:54;;;;;;;6.00;5.40;;;21.30;98.30;;;;;;4983371;28;20422;-72
2023/09/29 03:07:20;;;;;;;5.63;5.13;;;21.30;98.30;;;;;;4983408;28;20784;-72
2023/09/29 03:09:46;;;;;;;6.27;5.67;;;21.30;98.30;;;;;;5001060;28;20431;-72
2023/09/29 03:12:13;;;;;;;6.23;5.70;;;21.30;98.30;;;;;;5001307;28;20485;-73
2023/09/29 03:14:39;;;;;;;6.00;5.40;;;21.30;98.30;;;;;;5000922;28;20472;-72
2023/09/29 03:17:05;;;;;;;5.57;5.10;;;21.30;98.30;;;;;;4967149;28;20451;-72
2023/09/29 03:19:34;;;;;;;5.30;4.80;;;21.30;98.30;;;;;;4966178;28;20482;-73
2023/09/29 03:22:00;;;;;;;5.50;5.00;;;21.30;98.30;;;;;;4983251;28;20430;-73
2023/09/29 03:24:29;;;;;;;5.50;5.00;;;21.30;98.30;;;;;;4982929;28;20466;-72
2023/09/29 03:27:00;;;;;;;5.60;5.10;;;21.30;98.40;;;;;;4967462;28;20669;-73
2023/09/29 03:29:29;;;;;;;6.37;5.37;;;21.30;98.50;;;;;;4966925;28;21328;-73
2023/09/29 03:31:54;;;;;;;6.00;5.50;;;21.30;98.50;;;;;;5001176;28;20442;-71
2023/09/29 03:34:23;;;;;;;8.50;5.50;;;21.20;98.40;;;;;;4983190;28;20569;-71
2023/09/29 03:36:50;;;;;;;6.00;5.50;;;21.20;98.40;;;;;;5001182;28;20534;-73
2023/09/29 03:39:18;;;;;;;6.53;5.87;;;21.30;98.40;;;;;;4983406;28;20531;-73
2023/09/29 03:41:47;;;;;;;6.53;5.87;;;21.30;98.40;;;;;;4983322;28;20443;-72
2023/09/29 03:44:13;;;;;;;7.03;6.43;;;21.20;98.40;;;;;;5000704;28;20455;-71
2023/09/29 03:46:41;;;;;;;5.53;5.03;;;21.30;98.50;;;;;;4966704;28;21092;-73
2023/09/29 03:49:10;;;;;;;9.10;5.27;;;21.20;98.40;;;;;;5000733;28;20503;-73
2023/09/29 03:51:38;;;;;;;5.93;5.30;;;21.30;98.50;;;;;;4948728;28;20544;-71
2023/09/29 03:54:04;;;;;;;7.13;5.47;;;21.30;98.50;;;;;;4999884;28;20490;-72
2023/09/29 03:56:32;;;;;;;6.20;5.60;;;21.20;98.50;;;;;;5000874;28;20457;-71
2023/09/29 03:58:58;;;;;;;5.90;5.50;;;21.20;98.40;;;;;;4967006;28;20452;-72
2023/09/29 04:01:27;;;;;;;6.13;5.53;;;21.20;98.40;;;;;;4983171;28;20437;-72
2023/09/29 04:03:56;;;;;;;5.70;5.20;;;21.30;98.50;;;;;;4983120;28;20463;-73
2023/09/29 04:06:23;;;;;;;5.00;4.60;;;21.20;98.50;;;;;;5000571;28;20419;-71
2023/09/29 04:08:49;;;;;;;7.97;6.40;;;21.20;98.40;;;;;;4982840;28;21021;-72
2023/09/29 04:11:15;;;;;;;5.80;5.27;;;21.20;98.50;;;;;;4966466;28;20486;-72
2023/09/29 04:13:43;;;;;;;6.37;5.77;;;21.20;98.50;;;;;;4983039;28;20482;-72
2023/09/29 04:16:09;;;;;;;5.90;5.40;;;21.20;98.50;;;;;;4982628;28;20447;-73
2023/09/29 04:18:38;;;;;;;6.10;5.50;;;21.20;98.40;;;;;;4966922;28;20517;-72
2023/09/29 04:21:14;;;;;;;6.10;5.47;;;21.20;98.50;;;;;;4966847;28;21326;-71
2023/09/29 04:23:44;;;;;;;6.40;5.90;;;21.20;98.60;;;;;;4982472;28;20440;-72
2023/09/29 04:26:20;;;;;;;6.37;5.77;;;21.20;98.60;;;;;;4971588;28;20515;-73
2023/09/29 04:28:49;;;;;;;6.47;5.87;;;21.20;98.60;;;;;;4992028;28;20459;-71
2023/09/29 04:31:16;;;;;;;6.33;5.83;;;21.20;98.50;;;;;;4966706;28;21106;-71
2023/09/29 04:33:44;;;;;;;5.40;4.90;;;21.20;98.50;;;;;;4982789;28;20544;-71
2023/09/29 04:36:16;;;;;;;6.30;5.70;;;21.20;98.60;;;;;;4982597;28;20439;-71
2023/09/29 04:38:42;;;;;;;5.43;5.03;;;21.10;98.50;;;;;;5000328;28;20287;-72
2023/09/29 04:41:11;;;;;;;5.80;5.30;;;21.10;98.50;;;;;;5000462;28;20842;-73
2023/09/29 04:43:37;;;;;;;6.80;6.10;;;21.10;98.60;;;;;;5000082;28;20432;-73
2023/09/29 04:46:06;;;;;;;5.87;5.47;;;21.10;98.60;;;;;;4967093;28;20446;-71
2023/09/29 04:48:32;;;;;;;6.50;6.00;;;21.20;98.70;;;;;;5000320;28;20419;-73
2023/09/29 04:50:59;;;;;;;5.50;5.00;;;21.20;98.60;;;;;;4999867;28;20465;-73
2023/09/29 04:53:25;;;;;;;5.40;4.90;;;21.10;98.60;;;;;;4982444;28;20475;-73
2023/09/29 04:55:53;;;;;;;5.23;4.83;;;21.20;98.70;;;;;;5000078;28;21010;-72
2023/09/29 04:58:22;;;;;;;5.07;4.63;;;21.20;98.70;;;;;;4999902;28;21004;-72
2023/09/29 05:00:52;;;;;;;5.40;4.90;;;21.20;98.70;;;;;;4974541;28;20439;-72
2023/09/29 05:03:21;;;;;;;5.43;4.87;;;21.30;98.80;;;;;;4950145;28;20460;-73
2023/09/29 05:05:51;;;;;;;6.07;5.57;;;21.20;98.70;;;;;;4986134;28;20450;-72
2023/09/29 05:08:17;;;;;;;4.90;4.50;;;21.20;98.70;;;;;;4986350;28;20438;-71
2023/09/29 05:10:44;;;;;;;5.00;4.03;;;21.20;98.70;;;;;;4969657;28;20443;-72
2023/09/29 05:13:10;;;;;;;5.30;4.80;;;21.10;98.70;;;;;;4969938;28;20474;-72
2023/09/29 05:15:36;;;;;;;5.60;5.10;;;21.10;98.70;;;;;;4967678;28;20479;-73
2023/09/29 05:18:03;;;;;;;4.97;4.57;;;21.10;98.70;;;;;;4985441;28;20502;-73
2023/09/29 05:20:32;;;;;;;5.30;4.80;;;21.10;98.80;;;;;;5003161;28;20486;-73
2023/09/29 05:22:58;;;;;;;5.80;5.20;;;21.10;98.80;;;;;;4985659;28;20536;-73
2023/09/29 05:25:24;;;;;;;5.53;4.97;;;21.10;98.80;;;;;;4984691;28;20447;-71
2023/09/29 05:27:52;;;;;;;5.43;4.90;;;21.10;98.80;;;;;;4977788;28;20957;-72
2023/09/29 05:30:21;;;;;;;5.20;4.70;;;21.10;98.80;;;;;;4984787;28;20445;-73
2023/09/29 05:32:51;;;;;;;5.90;4.97;;;21.10;98.80;;;;;;4983716;28;20423;-73
2023/09/29 05:35:20;;;;;;;4.87;4.47;;;21.10;98.80;;;;;;5002627;28;21031;-72
2023/09/29 05:37:49;;;;;;;5.27;4.87;;;21.10;98.90;;;;;;5001782;28;20473;-72
2023/09/29 05:40:15;;;;;;;5.10;4.60;;;20.90;98.80;;;;;;5001601;28;21076;-72
2023/09/29 05:42:44;;;;;;;4.77;4.43;;;21.10;98.90;;;;;;5001958;28;20769;-72
2023/09/29 05:45:12;;;;;;;4.93;4.53;;;21.10;98.90;;;;;;4984732;28;20482;-72
2023/09/29 05:47:38;;;;;;;5.73;5.23;;;21.10;98.90;;;;;;4968031;28;20469;-72
2023/09/29 05:50:04;;;;;;;5.37;4.90;;;21.10;98.90;;;;;;4968019;28;21314;-72
2023/09/29 05:52:31;;;;;;;5.37;4.97;;;21.10;98.80;;;;;;4967985;28;20462;-72
2023/09/29 05:54:57;;;;;;;5.07;4.67;;;21.10;98.90;;;;;;5001743;28;20994;-72
2023/09/29 05:57:24;;;;;;;9.07;4.80;;;21.10;98.90;;;;;;4983968;28;20431;-73
2023/09/29 05:59:54;;;;;;;5.07;4.60;;;21.00;98.90;;;;;;4993747;28;21247;-72
2023/09/29 06:02:21;;;;;;;6.40;4.73;;;21.10;98.90;;;;;;5002538;28;20557;-72
2023/09/29 06:04:49;;;;;;;4.90;4.50;;;21.10;98.90;;;;;;4951653;28;20494;-72
2023/09/29 06:07:18;;;;;;;5.07;4.53;;;21.10;99.00;;;;;;4983501;28;20792;-73
2023/09/29 06:09:49;;;;;;;4.70;4.30;;;21.10;98.90;;;;;;4967795;28;20443;-72
2023/09/29 06:12:15;;;;;;;5.20;4.53;;;21.00;98.90;;;;;;4983478;28;20557;-72
2023/09/29 06:14:41;;;;;;;6.20;4.27;;;21.00;98.90;;;;;;4983526;28;20474;-72
2023/09/29 06:17:09;;;;;;;4.73;4.40;;;21.10;99.00;;;;;;4950671;28;21203;-72
2023/09/29 06:19:36;;;;;;;4.87;4.37;;;21.10;99.00;;;;;;4983634;28;20492;-71
2023/09/29 06:22:02;;;;;;;4.73;4.27;;;21.00;98.90;;;;;;4984862;28;20482;-72
2023/09/29 06:24:28;;;;;;;5.00;4.60;;;21.10;99.00;;;;;;4952034;28;20470;-72
2023/09/29 06:26:54;;;;;;;5.23;4.73;;;21.00;98.90;;;;;;4951326;28;20438;-71
2023/09/29 06:29:25;;;;;;;6.77;4.40;;;21.10;99.00;;;;;;4983917;28;20526;-72
2023/09/29 06:31:56;;;;;;;4.27;3.93;;;21.10;99.10;;;;;;4983913;28;20576;-72
2023/09/29 06:34:22;;;;;;;4.80;4.40;;;21.00;99.00;;;;;;5001330;28;21014;-73
2023/09/29 06:36:48;;;;;;;4.40;4.00;;;21.00;99.00;;;;;;4967311;28;20458;-72
2023/09/29 06:39:16;;;;;;;4.67;4.17;;;21.00;99.00;;;;;;4983142;28;20415;-71
2023/09/29 06:41:42;;;;;;;10.00;4.90;;;21.00;99.10;;;;;;5000510;28;20445;-71
2023/09/29 06:44:09;;;;;;;5.00;4.60;;;21.00;99.10;;;;;;4983364;28;20494;-72
2023/09/29 06:46:35;;;;;;;4.57;4.17;;;21.10;99.20;;;;;;4967374;28;20435;-71
2023/09/29 06:49:01;;;;;;;5.37;4.00;;;21.00;99.20;;;;;;4967012;28;20456;-72
2023/09/29 06:51:27;;;;;;;5.33;4.47;;;21.00;99.10;;;;;;5000909;28;20439;-72
2023/09/29 06:53:58;;;;;;;6.13;4.57;;;21.10;99.30;;;;;;4982699;28;20633;-73
2023/09/29 06:56:25;;;;;;;5.13;4.63;;;21.00;99.30;;;;;;4951173;28;20439;-73
2023/09/29 06:58:56;;;;;;;4.87;4.47;;;21.10;99.40;;;;;;4983608;28;20432;-73
2023/09/29 07:01:26;;;;;;;4.40;4.10;;;21.00;99.40;;;;;;4983100;28;20522;-72
2023/09/29 07:03:52;;;;;;;4.77;4.40;;;21.00;99.30;;;;;;4975470;28;20533;-72
2023/09/29 07:06:21;;;;;;;5.20;4.80;;;20.90;99.30;;;;;;4983242;28;20432;-72
2023/09/29 07:08:50;;;;;;;5.07;4.60;;;21.00;99.40;;;;;;5000533;28;20427;-72
2023/09/29 07:11:18;;;;;;;5.37;4.53;;;21.00;99.40;;;;;;4983354;28;20428;-73
2023/09/29 07:13:47;;;;;;;4.67;4.27;;;21.00;99.40;;;;;;5000205;28;20459;-71
2023/09/29 07:16:13;;;;;;;5.30;4.80;;;21.00;99.30;;;;;;4966781;28;20425;-72
2023/09/29 07:18:47;;;;;;;5.47;4.40;;;21.10;99.20;;;;;;4967199;28;20421;-72
2023/09/29 07:21:14;;;;;;;5.47;4.70;;;21.00;99.20;;;;;;4964024;28;21301;-71
2023/09/29 07:23:40;;;;;;;5.03;4.63;;;21.00;99.30;;;;;;4999914;28;20481;-73
2023/09/29 07:26:08;;;;;;;5.37;4.87;;;21.00;99.10;;;;;;4967113;28;21314;-71
2023/09/29 07:28:37;;;;;;;4.43;4.03;;;21.10;99.20;;;;;;4982077;28;20427;-71
2023/09/29 07:31:09;;;;;;;4.03;3.70;;;21.00;99.10;;;;;;4982727;28;20451;-71
2023/09/29 07:33:39;;;;;;;4.67;4.20;;;21.00;99.10;;;;;;4982191;28;20455;-71
2023/09/29 07:36:05;;;;;;;4.97;4.27;;;21.10;99.10;;;;;;4966392;28;21228;-71
2023/09/29 07:38:33;;;;;;;5.17;4.70;;;21.00;99.10;;;;;;4982341;28;20537;-71
2023/09/29 07:41:04;;;;;;;5.20;4.70;;;21.10;99.20;;;;;;4967172;28;20431;-71
2023/09/29 07:43:30;;;;;;;5.73;5.07;;;21.00;99.10;;;;;;4982780;28;20455;-71
2023/09/29 07:45:57;;;;;;;4.77;4.37;;;21.10;99.20;;;;;;4981811;28;20439;-71
2023/09/29 07:48:25;;;;;;;5.23;4.73;;;21.10;99.20;;;;;;4999330;28;20459;-71
2023/09/29 07:50:53;;;;;;;5.10;4.60;;;21.10;99.30;;;;;;4965784;28;20462;-71
2023/09/29 07:53:19;;;;;;;5.33;4.57;;;21.10;99.30;;;;;;4981239;28;20569;-71
2023/09/29 07:55:50;;;;;;;4.97;4.57;;;21.00;99.40;;;;;;4981243;28;21193;-71
2023/09/29 07:58:18;;;;;;;6.13;4.47;;;21.00;99.50;;;;;;4982225;28;20531;-71
2023/09/29 08:00:44;;;;;;;5.10;4.70;;;21.10;99.60;;;;;;4999411;28;21239;-70
2023/09/29 08:03:11;;;;;;;4.77;4.37;;;21.20;99.70;;;;;;4999456;28;20470;-71
2023/09/29 08:05:40;;;;;;;4.47;4.13;;;21.00;99.70;;;;;;4958151;28;20472;-71
2023/09/29 08:08:06;;;;;;;4.50;4.10;;;21.10;99.70;;;;;;4981862;28;20480;-71
2023/09/29 08:10:33;;;;;;;4.47;3.97;;;21.00;99.70;;;;;;4981955;28;20505;-70
2023/09/29 08:12:59;;;;;;;5.03;4.63;;;21.20;99.90;;;;;;4999100;28;20513;-71
2023/09/29 08:15:25;;;;;;;5.07;4.67;;;21.10;99.90;;;;;;4964881;28;21034;-71
2023/09/29 08:17:54;;;;;;;4.93;4.43;;;21.10;99.90;;;;;;4999389;28;21372;-71
2023/09/29 08:20:20;;;;;;;5.00;4.60;;;21.10;99.80;;;;;;4999246;28;20874;-71
2023/09/29 08:22:53;;;;;;;6.10;5.60;;;21.10;99.90;;;;;;4981285;28;21000;-71
2023/09/29 08:25:21;;;;;;;5.53;5.03;;;21.10;99.90;;;;;;4973928;28;21077;-71
2023/09/29 08:27:50;;;;;;;5.80;4.53;;;21.10;99.90;;;;;;4965494;28;20467;-71
2023/09/29 08:30:17;;;;;;;5.20;4.70;;;21.10;99.90;;;;;;4998733;28;20998;-71
2023/09/29 08:32:46;;;;;;;5.70;5.30;;;21.00;99.80;;;;;;4965494;28;20442;-71
2023/09/29 08:35:15;;;;;;;4.50;4.20;;;21.10;99.90;;;;;;4965484;28;20525;-71
2023/09/29 08:37:44;;;;;;;5.63;5.13;;;21.10;99.90;;;;;;4982152;28;20428;-71
2023/09/29 08:40:14;;;;;;;4.80;4.27;;;21.10;99.90;;;;;;4971305;28;20431;-71
2023/09/29 08:42:45;;;;;;;5.57;5.07;;;21.10;99.90;;;;;;4987880;28;20517;-71
2023/09/29 08:45:20;;;;;;;5.80;4.70;;;21.20;99.90;;;;;;4987833;28;20434;-71
2023/09/29 08:47:50;;;;;;;5.17;4.67;;;21.20;99.90;;;;;;4979189;28;20455;-71
2023/09/29 08:50:17;;;;;;;5.30;4.80;;;21.10;99.90;;;;;;4972310;28;20492;-71
2023/09/29 08:52:47;;;;;;;5.03;4.73;;;21.10;99.90;;;;;;4986854;28;20541;-71
2023/09/29 08:55:17;;;;;;;6.43;5.93;;;21.20;99.90;;;;;;5006206;28;20905;-71
2023/09/29 08:57:46;;;;;;;6.50;4.63;;;21.10;99.90;;;;;;4972872;28;20441;-71
2023/09/29 09:00:16;;;;;;;5.87;4.03;;;21.10;99.90;;;;;;4973231;28;20470;-71
2023/09/29 09:02:45;;;;;;;5.10;4.70;;;21.10;99.90;;;;;;4972318;28;20894;-71
2023/09/29 09:05:17;;;;;;;4.20;3.80;;;21.10;99.90;;;;;;4972757;28;20508;-72
2023/09/29 09:07:48;;;;;;;5.30;4.80;;;21.10;99.90;;;;;;4972249;28;20498;-72
2023/09/29 09:10:14;;;;;;;5.33;4.53;;;21.20;99.90;;;;;;4987542;28;20481;-71
2023/09/29 09:12:40;;;;;;;6.00;4.87;;;21.10;99.90;;;;;;4987208;28;20517;-72
2023/09/29 09:15:12;;;;;;;6.13;4.70;;;21.30;99.90;;;;;;4971243;28;20482;-71
2023/09/29 09:17:38;;;;;;;6.20;4.23;;;21.20;99.90;;;;;;4971246;28;20423;-72
2023/09/29 09:20:06;;;;;;;5.83;4.80;;;21.20;99.90;;;;;;5005031;28;21277;-72
2023/09/29 09:22:38;;;;;;;5.60;5.10;;;21.20;99.90;;;;;;4971428;28;20457;-71
2023/09/29 09:25:08;;;;;;;9.17;5.17;;;21.20;99.90;;;;;;4987932;28;20434;-71
2023/09/29 09:27:39;;;;;;;4.60;4.20;;;21.20;99.90;;;;;;4987608;28;20925;-72
2023/09/29 09:30:06;;;;;;;5.37;4.83;;;21.30;99.90;;;;;;4987218;28;20524;-72
2023/09/29 09:32:34;;;;;;;5.07;4.67;;;21.20;99.90;;;;;;4971236;28;20446;-72
2023/09/29 09:35:00;;;;;;;5.17;4.67;;;21.30;99.90;;;;;;4987324;28;20565;-72
2023/09/29 09:37:29;;;;;;;5.40;4.33;;;21.30;99.90;;;;;;4987908;28;20593;-73
2023/09/29 09:39:59;;;;;;;4.80;4.30;;;21.40;99.90;;;;;;5005880;28;21088;-72
2023/09/29 09:42:28;;;;;;;6.50;4.23;;;21.30;99.90;;;;;;4971720;28;20434;-71
2023/09/29 09:44:57;;;;;;;5.53;4.73;;;21.40;99.90;;;;;;4987795;28;20458;-72
2023/09/29 09:47:27;;;;;;;5.30;4.90;;;21.30;99.90;;;;;;4970233;28;20450;-73
2023/09/29 09:49:57;;;;;;;5.07;4.27;;;21.40;99.90;;;;;;4978893;28;20431;-73
2023/09/29 09:52:29;;;;;;;6.00;4.47;;;21.40;99.90;;;;;;4968105;28;20522;-72
2023/09/29 09:54:58;;;;;;;5.00;4.50;;;21.40;99.90;;;;;;5001725;28;20890;-72
2023/09/29 09:57:41;;;;;;;6.53;4.67;;;21.40;99.90;;;;;;4984188;28;20446;-73
2023/09/29 10:00:12;;;;;;;6.20;4.43;;;21.40;99.90;;;;;;4964439;28;20436;-72
2023/09/29 10:02:57;;;;;;;5.97;5.33;;;21.50;99.90;;;;;;4955103;23;20561;-69
2023/09/29 10:05:30;;;;;;;5.10;4.60;;;21.50;99.90;;;;;;4916638;29;20535;-69
2023/09/29 10:08:05;;;;;;;6.57;4.70;;;21.50;99.90;;;;;;4925162;29;20431;-69
2023/09/29 10:10:35;;;;;;;5.30;4.23;;;21.50;99.90;;;;;;4908026;29;20442;-69
2023/09/29 10:13:03;;;;;;;5.00;4.40;;;21.40;99.90;;;;;;4923448;29;21134;-69
2023/09/29 10:15:32;;;;;;;5.00;4.50;;;21.50;99.90;;;;;;4923505;29;20474;-69
2023/09/29 10:18:22;;;;;;;4.43;4.13;;;21.50;99.90;;;;;;4919128;29;20432;-69
2023/09/29 10:21:00;;;;;;;4.80;4.37;;;21.50;99.90;;;;;;4911537;29;20546;-69
2023/09/29 10:23:30;;;;;;;5.23;4.73;;;21.60;99.90;;;;;;4922993;29;21062;-69
2023/09/29 10:25:58;;;;;;;4.60;4.20;;;21.60;99.90;;;;;;4917729;29;20442;-69
2023/09/29 10:28:35;;;;;;;4.47;4.07;;;21.60;99.90;;;;;;4907594;29;20914;-69
2023/09/29 10:31:27;;;;;;;4.70;4.10;;;21.50;99.90;;;;;;4922993;29;21179;-69
2023/09/29 10:33:57;;;;;;;5.30;4.60;;;21.60;99.90;;;;;;4924511;29;20466;-69
2023/09/29 10:36:28;;;;;;;5.90;5.27;;;21.60;99.90;;;;;;4927148;29;20471;-68
2023/09/29 10:38:57;;;;;;;4.90;4.50;;;21.70;99.90;;;;;;4900567;29;20471;-69
2023/09/29 10:41:31;;;;;;;6.00;4.07;;;21.70;99.90;;;;;;4892254;29;20966;-69
2023/09/29 10:44:01;;;;;;;5.20;4.73;;;21.70;99.90;;;;;;4930631;28;20563;-69
2023/09/29 10:46:29;;;;;;;6.40;4.33;;;21.70;99.90;;;;;;4915249;29;20443;-69
2023/09/29 10:48:55;;;;;;;4.80;4.30;;;21.70;99.90;;;;;;4923248;29;20451;-69
2023/09/29 10:51:25;;;;;;;6.63;4.50;;;21.70;99.90;;;;;;4922889;29;20471;-69
2023/09/29 10:53:55;;;;;;;8.13;5.50;;;21.80;99.90;;;;;;4923104;29;20769;-69
2023/09/29 10:56:25;;;;;;;6.20;5.60;;;21.80;99.90;;;;;;4922896;29;20443;-69
2023/09/29 10:58:54;;;;;;;6.20;4.43;;;21.80;99.90;;;;;;4923210;29;20929;-69
2023/09/29 11:01:32;;;;;;;6.70;5.57;;;21.70;99.90;;;;;;4924462;29;20446;-69
2023/09/29 11:04:00;;;;;;;7.63;4.53;;;21.80;99.90;;;;;;4913302;29;20477;-69
2023/09/29 11:06:30;;;;;;;8.87;5.03;;;21.70;99.90;;;;;;4938708;29;20565;-69
2023/09/29 11:08:58;;;;;;;5.80;5.00;;;21.80;99.90;;;;;;4924285;29;20530;-69
2023/09/29 11:11:33;;;;;;;8.50;4.97;;;21.80;99.90;;;;;;4923913;29;20578;-69
2023/09/29 11:13:59;;;;;;;7.87;5.00;;;21.80;99.90;;;;;;4922851;29;20879;-69
2023/09/29 11:16:27;;;;;;;6.40;4.83;;;21.80;99.90;;;;;;4904145;29;21212;-69
2023/09/29 11:19:06;;;;;;;8.90;6.37;;;21.80;99.90;;;;;;4916974;29;20423;-69
2023/09/29 11:21:34;;;;;;;6.10;5.07;;;21.80;99.90;;;;;;4937591;29;20439;-69
2023/09/29 11:24:11;;;;;;;4.90;4.43;;;21.90;99.90;;;;;;4902490;29;20876;-69
2023/09/29 11:26:42;;;;;;;7.50;4.77;;;21.90;99.90;;;;;;4977678;23;20500;-70
2023/09/29 11:29:24;;;;;;;5.67;4.30;;;21.90;99.90;;;;;;4934792;28;21115;-70
2023/09/29 11:31:54;;;;;;;5.77;5.00;;;22.00;99.90;;;;;;4981166;28;20420;-71
2023/09/29 11:34:24;;;;;;;7.27;5.87;;;22.00;99.90;;;;;;4961848;28;21011;-70
2023/09/29 11:36:53;;;;;;;6.37;4.87;;;22.00;99.90;;;;;;4969665;28;20952;-70
2023/09/29 11:39:22;;;;;;;7.13;5.20;;;21.90;99.90;;;;;;4976335;28;20437;-70
2023/09/29 11:41:50;;;;;;;10.07;5.60;;;21.90;99.90;;;;;;4963171;28;20455;-70
2023/09/29 11:44:19;;;;;;;8.30;6.03;;;22.00;99.90;;;;;;4974239;28;20875;-70
2023/09/29 11:46:49;;;;;;;7.53;5.00;;;22.00;99.90;;;;;;4939275;28;21125;-70
2023/09/29 11:49:19;;;;;;;6.03;5.20;;;22.00;99.90;;;;;;4955455;28;21062;-70
2023/09/29 11:51:52;;;;;;;7.83;5.50;;;22.10;99.90;;;;;;4970437;28;21007;-70
2023/09/29 11:54:22;;;;;;;7.50;5.23;;;22.00;99.90;;;;;;4943395;28;21213;-70
2023/09/29 11:56:48;;;;;;;11.00;5.63;;;22.10;99.90;;;;;;4954955;28;20433;-70
2023/09/29 11:59:17;;;;;;;5.63;5.07;;;22.10;99.90;;;;;;4962930;28;20494;-70
2023/09/29 12:01:44;;;;;;;7.87;5.60;;;22.10;99.90;;;;;;4952720;28;20441;-70
2023/09/29 12:04:10;;;;;;;8.90;5.10;;;22.10;99.90;;;;;;4968820;28;20460;-69
2023/09/29 12:06:42;;;;;;;7.27;5.57;;;22.10;99.90;;;;;;4966024;28;20772;-69
2023/09/29 12:09:10;;;;;;;6.83;4.87;;;22.20;99.90;;;;;;4955539;28;20465;-70
2023/09/29 12:11:37;;;;;;;8.13;4.63;;;22.10;99.90;;;;;;4961139;28;20461;-70
2023/09/29 12:14:08;;;;;;;7.60;5.40;;;22.20;99.90;;;;;;4940350;28;20472;-70
2023/09/29 12:16:37;;;;;;;6.87;5.70;;;22.20;99.90;;;;;;4947097;28;20437;-70
2023/09/29 12:19:03;;;;;;;10.63;6.03;;;22.20;99.90;;;;;;4980457;28;20449;-70
2023/09/29 12:21:33;;;;;;;8.33;5.40;;;22.20;99.90;;;;;;4963553;28;20820;-70
2023/09/29 12:24:04;;;;;;;9.10;5.63;;;22.20;99.90;;;;;;4952052;28;20457;-70
2023/09/29 12:26:31;;;;;;;7.67;5.80;;;22.20;99.90;;;;;;4993686;28;20447;-70
2023/09/29 12:28:59;;;;;;;9.37;5.73;;;22.20;99.90;;;;;;4947688;28;20433;-70
2023/09/29 12:31:28;;;;;;;8.20;5.87;;;22.30;99.90;;;;;;4979248;28;20503;-70
2023/09/29 12:33:56;;;;;;;8.50;5.73;;;22.20;99.90;;;;;;4952683;28;21153;-70
2023/09/29 12:36:23;;;;;;;7.63;5.57;;;22.30;99.90;;;;;;4977343;28;20436;-70
2023/09/29 12:38:50;;;;;;;12.43;5.93;;;22.30;99.90;;;;;;4947340;28;20472;-70
2023/09/29 12:41:16;;;;;;;11.03;5.07;;;22.30;99.90;;;;;;4970163;28;21042;-70
2023/09/29 12:43:50;;;;;;;10.10;5.53;;;22.30;99.90;;;;;;4981661;28;20898;-70
2023/09/29 12:46:19;;;;;;;7.37;5.27;;;22.30;99.90;;;;;;4999679;28;20475;-70
2023/09/29 12:48:47;;;;;;;8.23;5.93;;;22.30;99.90;;;;;;4965550;28;20445;-70
2023/09/29 12:51:15;;;;;;;8.30;5.50;;;22.40;99.90;;;;;;4999414;28;20968;-70
2023/09/29 12:53:49;;;;;;;7.10;5.10;;;22.30;99.90;;;;;;4965981;28;20471;-70
2023/09/29 12:56:16;;;;;;;9.43;5.23;;;22.40;99.90;;;;;;4998609;28;21164;-70